Time;durP1;ratioP1;P1;durP2;ratioP2;P2;SDS_P1;SDS_P2;PMS_P1;PMS_P2;Temp;Humidity;BMP_temperature;BMP_pressure;BME280_temperature;BME280_humidity;BME280_pressure;Samples;Min_cycle;Max_cycle;Signal;HPM_P1;HPM_P2
2023/06/09 00:00:19;;;;;;;22.13;19.73;;;17.00;99.90;;;;;;2105167;28;20028;-76
2023/06/09 00:01:22;;;;;;;20.92;18.73;;;17.00;99.90;;;;;;2105163;28;20498;-76
2023/06/09 00:02:23;;;;;;;21.48;19.23;;;17.00;99.90;;;;;;2098118;28;20035;-76
2023/06/09 00:03:25;;;;;;;26.08;20.25;;;17.00;99.90;;;;;;2097989;28;20551;-76
2023/06/09 00:04:26;;;;;;;22.17;19.80;;;17.00;99.90;;;;;;2097169;28;20028;-76
2023/06/09 00:05:28;;;;;;;21.20;18.95;;;17.00;99.90;;;;;;2089168;28;20025;-77
2023/06/09 00:06:30;;;;;;;22.25;19.58;;;17.00;99.90;;;;;;2100891;28;20526;-77
2023/06/09 00:07:33;;;;;;;21.52;19.40;;;17.00;99.90;;;;;;2092124;28;20631;-77
2023/06/09 00:08:34;;;;;;;21.65;19.33;;;17.00;99.90;;;;;;2084780;28;20700;-76
2023/06/09 00:09:35;;;;;;;22.70;20.27;;;17.00;99.90;;;;;;2087761;28;20028;-76
2023/06/09 00:10:36;;;;;;;21.15;19.08;;;17.00;99.90;;;;;;2091859;28;20046;-76
2023/06/09 00:11:36;;;;;;;22.50;20.08;;;16.90;99.90;;;;;;2104821;28;20028;-78
2023/06/09 00:12:37;;;;;;;22.58;20.17;;;16.90;99.90;;;;;;2098615;28;20031;-76
2023/06/09 00:13:37;;;;;;;22.73;19.80;;;16.90;99.90;;;;;;2097803;28;20539;-76
2023/06/09 00:14:38;;;;;;;21.77;19.48;;;16.90;99.90;;;;;;2089732;28;20033;-75
2023/06/09 00:15:39;;;;;;;22.73;20.33;;;16.90;99.90;;;;;;2101873;28;20021;-76
2023/06/09 00:16:46;;;;;;;26.00;20.23;;;16.90;99.90;;;;;;2094779;28;20059;-77
2023/06/09 00:17:48;;;;;;;23.17;20.67;;;16.90;99.90;;;;;;2103008;28;20039;-79
2023/06/09 00:18:48;;;;;;;22.75;20.35;;;16.90;99.90;;;;;;2100332;28;20030;-77
2023/06/09 00:19:52;;;;;;;23.85;21.23;;;16.80;99.90;;;;;;2100789;28;20269;-77
2023/06/09 00:20:52;;;;;;;24.13;20.88;;;16.90;99.90;;;;;;2101956;28;20023;-77
2023/06/09 00:21:53;;;;;;;23.20;20.80;;;16.80;99.90;;;;;;2097790;28;20035;-77
2023/06/09 00:22:55;;;;;;;23.42;20.92;;;16.80;99.90;;;;;;2089565;28;20017;-77
2023/06/09 00:23:55;;;;;;;22.88;20.48;;;16.80;99.90;;;;;;2098089;28;20043;-76
2023/06/09 00:24:56;;;;;;;23.02;20.63;;;16.80;99.90;;;;;;2101228;28;20056;-77
2023/06/09 00:25:57;;;;;;;23.48;20.98;;;16.80;99.90;;;;;;2100709;28;20032;-76
2023/06/09 00:26:57;;;;;;;23.92;21.17;;;16.80;99.90;;;;;;2093532;28;20028;-76
2023/06/09 00:27:58;;;;;;;24.42;21.92;;;16.80;99.90;;;;;;2092529;28;20024;-76
2023/06/09 00:28:58;;;;;;;23.98;21.25;;;16.70;99.90;;;;;;2092995;28;20111;-76
2023/06/09 00:30:00;;;;;;;23.45;21.08;;;16.70;99.90;;;;;;2092040;28;20389;-76
2023/06/09 00:31:00;;;;;;;23.20;20.88;;;16.70;99.90;;;;;;2095594;28;20454;-76
2023/06/09 00:32:01;;;;;;;23.65;21.25;;;16.70;99.90;;;;;;2098560;28;20121;-76
2023/06/09 00:33:02;;;;;;;23.20;20.80;;;16.70;99.90;;;;;;2100961;28;20033;-76
2023/06/09 00:34:03;;;;;;;22.95;20.63;;;16.60;99.90;;;;;;2095185;28;20046;-77
2023/06/09 00:35:04;;;;;;;23.40;21.08;;;16.60;99.90;;;;;;2091556;28;20199;-77
2023/06/09 00:36:05;;;;;;;24.83;21.63;;;16.60;99.90;;;;;;2100213;28;20019;-77
2023/06/09 00:37:06;;;;;;;23.50;20.90;;;16.60;99.90;;;;;;2092820;28;20032;-77
2023/06/09 00:38:06;;;;;;;23.50;21.05;;;16.50;99.90;;;;;;2105335;28;20152;-78
2023/06/09 00:39:08;;;;;;;23.73;20.95;;;16.50;99.90;;;;;;2102477;28;20089;-77
2023/06/09 00:40:09;;;;;;;23.02;20.55;;;16.50;99.90;;;;;;2096815;28;20373;-78
2023/06/09 00:41:10;;;;;;;23.13;20.60;;;16.50;99.90;;;;;;2097513;28;20016;-77
2023/06/09 00:42:10;;;;;;;22.65;20.25;;;16.50;99.90;;;;;;2101553;28;20116;-77
2023/06/09 00:43:11;;;;;;;23.38;20.92;;;16.40;99.90;;;;;;2100732;28;20035;-77
2023/06/09 00:44:12;;;;;;;22.67;20.30;;;16.40;99.90;;;;;;2092170;28;20036;-77
2023/06/09 00:45:14;;;;;;;23.80;21.40;;;16.50;99.90;;;;;;2091752;28;20028;-77
2023/06/09 00:46:15;;;;;;;24.38;20.95;;;16.50;99.90;;;;;;2100532;28;20034;-77
2023/06/09 00:47:17;;;;;;;23.05;20.75;;;16.50;99.90;;;;;;2101123;28;20042;-77
2023/06/09 00:48:18;;;;;;;23.38;20.92;;;16.50;99.90;;;;;;2101297;28;20032;-77
2023/06/09 00:49:18;;;;;;;23.95;21.58;;;16.40;99.90;;;;;;2089457;28;20020;-77
2023/06/09 00:50:20;;;;;;;23.65;21.08;;;16.40;99.90;;;;;;2094283;28;20323;-77
2023/06/09 00:51:21;;;;;;;23.70;20.88;;;16.40;99.90;;;;;;2094427;28;20063;-76
2023/06/09 00:52:22;;;;;;;24.25;21.33;;;16.40;99.90;;;;;;2093052;28;20535;-77
2023/06/09 00:53:24;;;;;;;24.67;21.83;;;16.40;99.90;;;;;;2094611;28;20350;-77
2023/06/09 00:54:25;;;;;;;26.00;21.95;;;16.40;99.90;;;;;;2092387;28;20107;-77
2023/06/09 00:55:30;;;;;;;25.02;22.52;;;16.40;99.90;;;;;;2092605;28;20182;-77
2023/06/09 00:56:33;;;;;;;24.05;21.35;;;16.40;99.90;;;;;;2100088;28;20517;-77
2023/06/09 00:57:34;;;;;;;24.13;21.63;;;16.30;99.90;;;;;;2100474;28;20050;-77
2023/06/09 00:58:35;;;;;;;25.65;22.00;;;16.30;99.90;;;;;;2093337;28;20025;-78
2023/06/09 00:59:36;;;;;;;25.35;22.73;;;16.30;99.90;;;;;;2094139;28;20419;-78
2023/06/09 01:00:38;;;;;;;24.75;22.15;;;16.30;99.90;;;;;;2097839;28;20126;-78
2023/06/09 01:01:40;;;;;;;24.75;21.98;;;16.30;99.90;;;;;;2098599;28;20103;-77
2023/06/09 01:02:41;;;;;;;23.70;21.20;;;16.20;99.90;;;;;;2099120;28;20507;-76
2023/06/09 01:03:41;;;;;;;25.05;22.40;;;16.20;99.90;;;;;;2097509;28;20297;-77
2023/06/09 01:04:49;;;;;;;24.98;22.05;;;16.20;99.90;;;;;;2089572;28;20276;-77
2023/06/09 01:06:08;;;;;;;24.50;22.10;;;16.20;99.90;;;;;;2091640;28;20027;-77
2023/06/09 01:07:41;;;;;;;23.13;20.83;;;16.20;99.90;;;;;;2094539;28;20043;-77
2023/06/09 01:08:52;;;;;;;23.20;20.80;;;16.20;99.90;;;;;;2089279;28;20046;-77
2023/06/09 01:10:26;;;;;;;23.33;20.92;;;16.20;99.90;;;;;;2091980;28;20560;-76
2023/06/09 01:11:40;;;;;;;25.23;21.58;;;16.20;99.90;;;;;;2077640;28;20060;-77
2023/06/09 01:13:09;;;;;;;23.70;21.38;;;16.20;99.90;;;;;;2092820;28;20541;-77
2023/06/09 01:14:20;;;;;;;25.65;21.02;;;16.20;99.90;;;;;;2093794;28;20024;-77
2023/06/09 01:15:25;;;;;;;23.08;20.63;;;16.20;99.90;;;;;;2097411;28;20040;-75
2023/06/09 01:16:40;;;;;;;23.92;21.10;;;16.20;99.90;;;;;;2089842;28;20064;-77
2023/06/09 01:17:42;;;;;;;23.98;21.45;;;16.10;99.90;;;;;;2083326;28;20135;-76
2023/06/09 01:18:47;;;;;;;24.33;21.33;;;16.10;99.90;;;;;;2094759;28;20032;-77
2023/06/09 01:19:57;;;;;;;24.30;21.75;;;16.10;99.90;;;;;;2097799;28;20036;-77
2023/06/09 01:21:20;;;;;;;23.15;20.77;;;16.10;99.90;;;;;;2090227;28;20492;-77
2023/06/09 01:22:52;;;;;;;24.60;21.45;;;16.10;99.90;;;;;;2098335;28;20074;-78
2023/06/09 01:24:19;;;;;;;23.67;21.15;;;16.10;99.90;;;;;;2099889;28;20039;-78
2023/06/09 01:25:43;;;;;;;25.58;22.05;;;16.10;99.90;;;;;;2083122;28;20139;-78
2023/06/09 01:26:45;;;;;;;24.73;21.45;;;16.10;99.90;;;;;;2088000;28;20031;-78
2023/06/09 01:27:48;;;;;;;25.52;22.65;;;16.10;99.90;;;;;;2094741;28;20605;-77
2023/06/09 01:28:50;;;;;;;25.88;22.30;;;16.10;99.90;;;;;;2097323;28;20087;-77
2023/06/09 01:29:52;;;;;;;23.98;21.38;;;16.10;99.90;;;;;;2098327;28;20032;-76
2023/06/09 01:30:55;;;;;;;24.02;21.52;;;16.10;99.90;;;;;;2078989;28;20029;-76
2023/06/09 01:31:59;;;;;;;23.35;20.85;;;16.10;99.90;;;;;;2080702;28;20464;-77
2023/06/09 01:33:03;;;;;;;24.30;21.80;;;16.10;99.90;;;;;;2099055;28;20094;-77
2023/06/09 01:34:04;;;;;;;23.77;21.27;;;16.10;99.90;;;;;;2101554;28;20034;-77
2023/06/09 01:35:05;;;;;;;24.23;21.75;;;16.00;99.90;;;;;;2091282;28;20024;-77
2023/06/09 01:36:06;;;;;;;24.75;22.08;;;16.00;99.90;;;;;;2095479;28;20032;-78
2023/06/09 01:37:07;;;;;;;24.30;21.67;;;16.00;99.90;;;;;;2104786;28;20023;-78
2023/06/09 01:38:09;;;;;;;25.02;22.33;;;16.00;99.90;;;;;;2098471;28;20585;-76
2023/06/09 01:39:11;;;;;;;23.42;21.02;;;16.00;99.90;;;;;;2097272;28;20036;-76
2023/06/09 01:40:12;;;;;;;24.42;21.92;;;16.00;99.90;;;;;;2085748;28;20103;-76
2023/06/09 01:41:12;;;;;;;25.00;22.40;;;16.00;99.90;;;;;;2097026;28;20024;-76
2023/06/09 01:42:13;;;;;;;23.63;21.23;;;16.00;99.90;;;;;;2099931;28;20086;-76
2023/06/09 01:43:13;;;;;;;23.67;21.27;;;16.00;99.90;;;;;;2091670;28;20028;-76
2023/06/09 01:44:14;;;;;;;24.98;21.60;;;16.00;99.90;;;;;;2090990;28;20131;-75
2023/06/09 01:45:15;;;;;;;23.63;21.20;;;16.00;99.90;;;;;;2099114;28;20438;-76
2023/06/09 01:46:15;;;;;;;23.52;21.05;;;16.00;99.90;;;;;;2099999;28;20023;-77
2023/06/09 01:47:19;;;;;;;23.58;21.00;;;15.90;99.90;;;;;;2100751;28;20491;-77
2023/06/09 01:48:37;;;;;;;22.98;20.60;;;15.90;99.90;;;;;;2104896;28;20035;-77
2023/06/09 01:49:53;;;;;;;22.75;20.42;;;15.90;99.90;;;;;;2100668;28;20036;-77
2023/06/09 01:50:53;;;;;;;23.90;21.35;;;15.90;99.90;;;;;;2102229;28;20246;-76
2023/06/09 01:52:10;;;;;;;23.02;20.42;;;15.90;99.90;;;;;;2099848;28;20051;-77
2023/06/09 01:53:16;;;;;;;22.23;19.98;;;15.90;99.90;;;;;;2099767;28;20062;-76
2023/06/09 01:54:24;;;;;;;22.15;19.95;;;15.90;99.90;;;;;;2099879;28;20052;-77
2023/06/09 01:55:35;;;;;;;23.33;20.48;;;15.80;99.90;;;;;;2092866;28;20028;-77
2023/06/09 01:56:43;;;;;;;22.88;20.55;;;15.90;99.90;;;;;;2099736;28;20094;-76
2023/06/09 01:57:49;;;;;;;22.65;20.25;;;15.90;99.90;;;;;;2099161;28;20028;-76
2023/06/09 01:58:57;;;;;;;22.20;19.90;;;15.80;99.90;;;;;;2099632;28;20609;-76
2023/06/09 02:00:03;;;;;;;22.65;19.90;;;15.80;99.90;;;;;;2101414;28;20481;-76
2023/06/09 02:01:16;;;;;;;22.48;19.70;;;15.80;99.90;;;;;;2100118;28;20043;-76
2023/06/09 02:02:20;;;;;;;22.05;19.33;;;15.80;99.90;;;;;;2086167;28;20028;-77
2023/06/09 02:03:23;;;;;;;22.45;19.27;;;15.80;99.90;;;;;;2092246;28;20036;-78
2023/06/09 02:04:27;;;;;;;22.73;20.33;;;15.80;99.90;;;;;;2098011;28;20549;-75
2023/06/09 02:05:29;;;;;;;22.83;20.42;;;15.70;99.90;;;;;;2094463;28;20513;-75
2023/06/09 02:06:33;;;;;;;22.30;19.83;;;15.80;99.90;;;;;;2089379;28;20024;-76
2023/06/09 02:07:34;;;;;;;23.17;20.30;;;15.70;99.90;;;;;;2093877;28;20431;-76
2023/06/09 02:08:37;;;;;;;23.05;20.17;;;15.70;99.90;;;;;;2093477;28;20036;-76
2023/06/09 02:09:37;;;;;;;22.05;19.73;;;15.70;99.90;;;;;;2091913;28;20020;-75
2023/06/09 02:10:40;;;;;;;21.98;19.73;;;15.70;99.90;;;;;;2086265;28;20392;-76
2023/06/09 02:11:41;;;;;;;23.45;19.70;;;15.70;99.90;;;;;;2083728;28;20043;-76
2023/06/09 02:12:49;;;;;;;21.42;19.20;;;15.70;99.90;;;;;;2101257;28;20042;-76
2023/06/09 02:13:54;;;;;;;20.80;18.80;;;15.70;99.90;;;;;;2102182;28;20110;-77
2023/06/09 02:14:54;;;;;;;21.42;19.13;;;15.70;99.90;;;;;;2099549;28;20048;-76
2023/06/09 02:15:55;;;;;;;21.73;19.00;;;15.70;99.90;;;;;;2100332;28;20123;-75
2023/06/09 02:16:56;;;;;;;22.15;19.75;;;15.70;99.90;;;;;;2097251;28;20038;-76
2023/06/09 02:17:57;;;;;;;22.70;19.70;;;15.70;99.90;;;;;;2096927;28;20020;-76
2023/06/09 02:18:58;;;;;;;22.50;20.20;;;15.70;99.90;;;;;;2095744;28;20577;-75
2023/06/09 02:19:59;;;;;;;23.20;20.42;;;15.70;99.90;;;;;;2100993;28;20137;-77
2023/06/09 02:20:59;;;;;;;23.35;20.95;;;15.60;99.90;;;;;;2091219;28;20721;-76
2023/06/09 02:22:00;;;;;;;27.48;21.90;;;15.60;99.90;;;;;;2098937;28;20174;-77
2023/06/09 02:23:01;;;;;;;24.42;21.90;;;15.60;99.90;;;;;;2095988;28;20012;-76
2023/06/09 02:24:01;;;;;;;25.42;22.83;;;15.60;99.90;;;;;;2099476;28;20076;-77
2023/06/09 02:25:03;;;;;;;25.48;22.77;;;15.60;99.90;;;;;;2099202;28;20028;-76
2023/06/09 02:26:04;;;;;;;27.15;24.05;;;15.60;99.90;;;;;;2096756;28;20028;-76
2023/06/09 02:27:05;;;;;;;26.50;23.15;;;15.60;99.90;;;;;;2097780;28;20027;-76
2023/06/09 02:28:06;;;;;;;27.02;23.88;;;15.60;99.90;;;;;;2096905;28;20119;-76
2023/06/09 02:29:07;;;;;;;28.45;25.00;;;15.60;99.90;;;;;;2097344;28;20281;-76
2023/06/09 02:30:08;;;;;;;26.98;24.08;;;15.60;99.90;;;;;;2091988;28;20024;-76
2023/06/09 02:31:09;;;;;;;26.63;23.75;;;15.60;99.90;;;;;;2094532;28;20032;-77
2023/06/09 02:32:10;;;;;;;26.48;23.40;;;15.50;99.90;;;;;;2091961;28;20849;-77
2023/06/09 02:33:11;;;;;;;26.15;22.98;;;15.50;99.90;;;;;;2090421;28;20056;-77
2023/06/09 02:34:11;;;;;;;26.05;23.35;;;15.50;99.90;;;;;;2090241;28;20107;-76
2023/06/09 02:35:12;;;;;;;25.75;23.00;;;15.50;99.90;;;;;;2089984;28;20097;-76
2023/06/09 02:36:13;;;;;;;25.52;22.73;;;15.50;99.90;;;;;;2096325;28;20110;-76
2023/06/09 02:37:14;;;;;;;25.17;22.58;;;15.50;99.90;;;;;;2088309;28;20039;-75
2023/06/09 02:38:17;;;;;;;25.83;22.88;;;15.50;99.90;;;;;;2093660;28;20024;-75
2023/06/09 02:39:18;;;;;;;26.65;23.73;;;15.50;99.90;;;;;;2097056;28;20044;-76
2023/06/09 02:40:19;;;;;;;26.88;23.90;;;15.50;99.90;;;;;;2099975;28;20029;-77
2023/06/09 02:41:20;;;;;;;29.35;24.25;;;15.50;99.90;;;;;;2094817;28;20063;-77
2023/06/09 02:42:20;;;;;;;26.83;23.95;;;15.50;99.90;;;;;;2089154;28;20511;-78
2023/06/09 02:43:21;;;;;;;28.30;23.95;;;15.50;99.90;;;;;;2093159;28;20078;-75
2023/06/09 02:44:22;;;;;;;26.42;23.48;;;15.40;99.90;;;;;;2091311;28;20043;-74
2023/06/09 02:45:24;;;;;;;28.42;23.88;;;15.40;99.90;;;;;;2091202;28;20020;-76
2023/06/09 02:46:25;;;;;;;27.60;24.55;;;15.40;99.90;;;;;;2096502;28;20063;-77
2023/06/09 02:47:25;;;;;;;26.55;23.42;;;15.50;99.90;;;;;;2093217;28;20522;-77
2023/06/09 02:48:26;;;;;;;26.40;23.63;;;15.50;99.90;;;;;;2095547;28;20028;-77
2023/06/09 02:49:26;;;;;;;26.55;23.55;;;15.50;99.90;;;;;;2083578;28;20428;-75
2023/06/09 02:50:27;;;;;;;27.48;24.52;;;15.40;99.90;;;;;;2074878;28;20508;-75
2023/06/09 02:51:33;;;;;;;25.80;22.92;;;15.50;99.90;;;;;;2085825;28;20241;-75
2023/06/09 02:52:34;;;;;;;25.70;22.92;;;15.50;99.90;;;;;;2092186;28;20381;-76
2023/06/09 02:53:36;;;;;;;25.67;22.73;;;15.50;99.90;;;;;;2092119;28;20414;-76
2023/06/09 02:54:39;;;;;;;25.90;22.42;;;15.50;99.90;;;;;;2100960;28;20020;-76
2023/06/09 02:55:44;;;;;;;26.33;22.42;;;15.50;99.90;;;;;;2098094;28;20507;-76
2023/06/09 02:56:45;;;;;;;26.08;23.05;;;15.50;99.90;;;;;;2091839;28;20107;-76
2023/06/09 02:57:45;;;;;;;25.52;22.92;;;15.40;99.90;;;;;;2086548;28;20047;-77
2023/06/09 02:58:48;;;;;;;25.33;22.52;;;15.40;99.90;;;;;;2086854;28;20959;-76
2023/06/09 02:59:49;;;;;;;25.30;21.88;;;15.40;99.90;;;;;;2088686;28;20057;-76
2023/06/09 03:00:50;;;;;;;25.00;22.48;;;15.40;99.90;;;;;;2097215;28;20518;-75
2023/06/09 03:01:52;;;;;;;26.67;23.05;;;15.40;99.90;;;;;;2096200;28;20503;-76
2023/06/09 03:02:52;;;;;;;27.20;22.60;;;15.50;99.90;;;;;;2100308;28;20028;-76
2023/06/09 03:03:55;;;;;;;25.88;23.17;;;15.40;99.90;;;;;;2090875;28;20446;-76
2023/06/09 03:04:56;;;;;;;27.45;23.27;;;15.50;99.90;;;;;;2091257;28;20103;-76
2023/06/09 03:05:58;;;;;;;27.30;23.10;;;15.50;99.90;;;;;;2092006;28;20024;-76
2023/06/09 03:07:00;;;;;;;27.05;21.73;;;15.50;99.90;;;;;;2096688;28;20024;-76
2023/06/09 03:08:01;;;;;;;26.77;23.20;;;15.50;99.90;;;;;;2091263;28;20064;-77
2023/06/09 03:09:02;;;;;;;25.80;22.63;;;15.50;99.90;;;;;;2095743;28;20020;-76
2023/06/09 03:10:05;;;;;;;26.92;23.17;;;15.50;99.90;;;;;;2090705;28;20052;-76
2023/06/09 03:11:09;;;;;;;28.38;23.88;;;15.50;99.90;;;;;;2096760;28;20068;-75
2023/06/09 03:12:10;;;;;;;30.05;23.65;;;15.50;99.90;;;;;;2091889;28;20417;-75
2023/06/09 03:13:11;;;;;;;27.60;24.13;;;15.50;99.90;;;;;;2094224;28;20470;-76
2023/06/09 03:14:16;;;;;;;31.75;24.05;;;15.50;99.90;;;;;;2093748;28;20063;-76
2023/06/09 03:15:17;;;;;;;25.95;22.83;;;15.50;99.90;;;;;;2082652;28;20106;-76
2023/06/09 03:16:19;;;;;;;25.58;22.88;;;15.50;99.90;;;;;;2090680;28;20403;-76
2023/06/09 03:17:20;;;;;;;25.65;22.33;;;15.50;99.90;;;;;;2101939;28;20035;-76
2023/06/09 03:18:22;;;;;;;25.65;22.33;;;15.40;99.90;;;;;;2100779;28;20042;-76
2023/06/09 03:19:24;;;;;;;25.92;21.85;;;15.50;99.90;;;;;;2090228;28;20024;-76
2023/06/09 03:20:24;;;;;;;26.25;21.95;;;15.50;99.90;;;;;;2085092;28;20460;-76
2023/06/09 03:21:26;;;;;;;26.13;20.98;;;15.50;99.90;;;;;;2087875;28;20397;-76
2023/06/09 03:22:28;;;;;;;23.25;20.13;;;15.50;99.90;;;;;;2089644;28;20040;-77
2023/06/09 03:23:31;;;;;;;24.00;21.30;;;15.50;99.90;;;;;;2099790;28;20083;-77
2023/06/09 03:24:33;;;;;;;25.25;21.85;;;15.50;99.90;;;;;;2094663;28;20407;-75
2023/06/09 03:25:37;;;;;;;23.55;20.50;;;15.50;99.90;;;;;;2085101;28;20084;-76
2023/06/09 03:26:37;;;;;;;27.40;20.63;;;15.50;99.90;;;;;;2079148;28;20068;-76
2023/06/09 03:27:38;;;;;;;23.23;20.27;;;15.50;99.90;;;;;;2090340;28;20056;-77
2023/06/09 03:28:39;;;;;;;23.38;20.55;;;15.50;99.90;;;;;;2095003;28;20032;-76
2023/06/09 03:29:40;;;;;;;23.88;20.58;;;15.50;99.90;;;;;;2080093;28;20041;-77
2023/06/09 03:30:41;;;;;;;24.10;21.58;;;15.50;99.90;;;;;;2092361;28;20047;-76
2023/06/09 03:31:42;;;;;;;23.27;20.70;;;15.50;99.90;;;;;;2089816;28;20057;-76
2023/06/09 03:32:43;;;;;;;22.65;20.23;;;15.50;99.90;;;;;;2081625;28;20096;-76
2023/06/09 03:33:44;;;;;;;27.33;20.63;;;15.50;99.90;;;;;;2082134;28;20455;-76
2023/06/09 03:34:45;;;;;;;26.60;21.35;;;15.50;99.90;;;;;;2097637;28;20032;-77
2023/06/09 03:35:48;;;;;;;22.65;20.17;;;15.50;99.90;;;;;;2094173;28;20057;-76
2023/06/09 03:36:49;;;;;;;25.67;21.70;;;15.50;99.90;;;;;;2096533;28;20030;-76
2023/06/09 03:37:49;;;;;;;26.45;23.05;;;15.50;99.90;;;;;;2095971;28;20071;-75
2023/06/09 03:38:50;;;;;;;27.75;22.38;;;15.60;99.90;;;;;;2100334;28;20542;-76
2023/06/09 03:39:50;;;;;;;27.85;22.45;;;15.60;99.90;;;;;;2098075;28;20054;-76
2023/06/09 03:40:55;;;;;;;27.55;22.27;;;15.60;99.90;;;;;;2099610;28;20035;-75
2023/06/09 03:41:57;;;;;;;26.55;23.40;;;15.60;99.90;;;;;;2090821;28;20032;-76
2023/06/09 03:42:58;;;;;;;28.48;22.88;;;15.60;99.90;;;;;;2094833;28;20021;-76
2023/06/09 03:43:58;;;;;;;26.95;22.73;;;15.60;99.90;;;;;;2093721;28;20063;-76
2023/06/09 03:44:59;;;;;;;29.00;23.33;;;15.60;99.90;;;;;;2092632;28;20040;-77
2023/06/09 03:46:02;;;;;;;29.17;23.30;;;15.60;99.90;;;;;;2091633;28;20535;-77
2023/06/09 03:47:06;;;;;;;27.00;23.33;;;15.70;99.90;;;;;;2095798;28;20199;-77
2023/06/09 03:48:07;;;;;;;28.42;23.83;;;15.70;99.90;;;;;;2100777;28;20125;-77
2023/06/09 03:49:07;;;;;;;32.20;24.00;;;15.70;99.90;;;;;;2097750;28;20083;-77
2023/06/09 03:50:08;;;;;;;28.75;24.23;;;15.70;99.90;;;;;;2090252;28;20028;-76
2023/06/09 03:51:09;;;;;;;27.25;23.63;;;15.70;99.90;;;;;;2090052;28;20055;-76
2023/06/09 03:52:10;;;;;;;30.95;22.60;;;15.70;99.90;;;;;;2094855;28;20527;-76
2023/06/09 03:53:11;;;;;;;27.63;23.20;;;15.70;99.90;;;;;;2101057;28;20346;-76
2023/06/09 03:54:12;;;;;;;30.95;23.20;;;15.70;99.90;;;;;;2099579;28;20340;-77
2023/06/09 03:55:12;;;;;;;26.83;21.83;;;15.80;99.90;;;;;;2102786;28;20035;-76
2023/06/09 03:56:14;;;;;;;25.27;22.20;;;15.80;99.90;;;;;;2098436;28;20036;-75
2023/06/09 03:57:14;;;;;;;26.80;23.63;;;15.80;99.90;;;;;;2102547;28;20058;-78
2023/06/09 03:58:15;;;;;;;34.50;24.20;;;15.90;99.90;;;;;;2091497;28;20029;-77
2023/06/09 03:59:17;;;;;;;29.30;23.85;;;15.90;99.90;;;;;;2087000;28;20025;-76
2023/06/09 04:00:18;;;;;;;31.92;25.42;;;15.90;99.90;;;;;;2088485;28;20041;-77
2023/06/09 04:01:19;;;;;;;31.08;24.25;;;16.00;99.90;;;;;;2099271;28;20526;-75
2023/06/09 04:02:20;;;;;;;36.22;26.48;;;16.00;99.90;;;;;;2091010;28;20628;-76
2023/06/09 04:03:21;;;;;;;30.52;24.67;;;16.10;99.90;;;;;;2099710;28;20198;-77
2023/06/09 04:04:21;;;;;;;32.78;23.52;;;16.20;99.90;;;;;;2093416;28;20028;-78
2023/06/09 04:05:22;;;;;;;30.92;24.55;;;16.30;99.90;;;;;;2094908;28;20028;-76
2023/06/09 04:06:24;;;;;;;26.85;22.25;;;16.50;99.90;;;;;;2094603;28;20028;-76
2023/06/09 04:07:25;;;;;;;29.75;23.15;;;16.60;99.90;;;;;;2094056;28;20148;-75
2023/06/09 04:08:25;;;;;;;29.98;23.00;;;16.80;99.90;;;;;;2096506;28;20483;-76
2023/06/09 04:09:27;;;;;;;29.58;22.38;;;17.00;99.90;;;;;;2093614;28;20457;-75
2023/06/09 04:10:27;;;;;;;31.33;22.98;;;17.10;99.90;;;;;;2098243;28;20511;-76
2023/06/09 04:11:29;;;;;;;26.52;21.40;;;17.30;99.90;;;;;;2101623;28;20032;-76
2023/06/09 04:12:30;;;;;;;28.50;21.33;;;17.40;99.90;;;;;;2097585;28;20033;-78
2023/06/09 04:13:31;;;;;;;26.95;20.92;;;17.60;99.90;;;;;;2097389;28;20066;-75
2023/06/09 04:14:31;;;;;;;23.30;20.20;;;17.70;99.90;;;;;;2095876;28;20131;-76
2023/06/09 04:15:32;;;;;;;24.23;19.75;;;17.90;99.90;;;;;;2094041;28;20028;-75
2023/06/09 04:16:36;;;;;;;23.50;20.52;;;18.00;99.90;;;;;;2084540;28;20392;-76
2023/06/09 04:17:37;;;;;;;25.13;18.90;;;18.10;99.90;;;;;;2072990;28;20116;-76
2023/06/09 04:18:39;;;;;;;21.95;18.77;;;18.10;99.90;;;;;;2076607;28;20032;-76
2023/06/09 04:19:41;;;;;;;22.10;18.70;;;18.20;99.90;;;;;;2087388;28;20349;-76
2023/06/09 04:20:42;;;;;;;22.77;17.48;;;18.30;99.90;;;;;;2090740;28;20029;-76
2023/06/09 04:21:43;;;;;;;21.38;18.15;;;18.30;99.90;;;;;;2094504;28;20519;-76
2023/06/09 04:22:50;;;;;;;19.05;17.05;;;18.30;99.90;;;;;;2082156;28;20027;-76
2023/06/09 04:23:55;;;;;;;19.90;16.92;;;18.30;99.90;;;;;;2089465;28;20029;-75
2023/06/09 04:24:56;;;;;;;19.70;17.00;;;18.40;99.90;;;;;;2097807;28;20028;-75
2023/06/09 04:25:57;;;;;;;21.40;16.42;;;18.50;99.90;;;;;;2088949;28;20059;-76
2023/06/09 04:27:03;;;;;;;19.25;16.65;;;18.60;99.90;;;;;;2090374;28;20025;-76
2023/06/09 04:28:04;;;;;;;18.88;16.88;;;18.70;99.90;;;;;;2087275;28;20040;-76
2023/06/09 04:29:09;;;;;;;19.45;16.48;;;18.70;99.90;;;;;;2095883;28;20150;-76
2023/06/09 04:30:11;;;;;;;19.55;16.80;;;18.80;99.90;;;;;;2092824;28;20400;-75
2023/06/09 04:31:11;;;;;;;18.80;16.67;;;18.90;99.90;;;;;;2101231;28;20031;-75
2023/06/09 04:32:12;;;;;;;21.35;17.05;;;19.00;99.90;;;;;;2086395;28;20460;-77
2023/06/09 04:33:13;;;;;;;18.05;16.02;;;19.00;99.90;;;;;;2086167;28;20054;-77
2023/06/09 04:34:15;;;;;;;18.25;16.33;;;19.10;99.90;;;;;;2089289;28;20552;-76
2023/06/09 04:35:23;;;;;;;20.95;17.25;;;19.10;99.90;;;;;;2086282;28;20037;-75
2023/06/09 04:36:24;;;;;;;19.40;17.48;;;19.10;99.90;;;;;;2082250;28;20222;-75
2023/06/09 04:37:25;;;;;;;20.25;17.02;;;19.10;99.90;;;;;;2093549;28;20230;-75
2023/06/09 04:38:27;;;;;;;18.27;16.38;;;19.10;99.90;;;;;;2100260;28;21431;-75
2023/06/09 04:39:28;;;;;;;18.70;16.05;;;19.10;99.90;;;;;;2096066;28;20024;-76
2023/06/09 04:40:30;;;;;;;19.38;16.05;;;19.10;99.90;;;;;;2102767;28;20122;-75
2023/06/09 04:41:32;;;;;;;26.42;17.00;;;19.20;99.90;;;;;;2100674;28;20156;-75
2023/06/09 04:42:33;;;;;;;20.90;16.77;;;19.20;99.90;;;;;;2099612;28;20106;-74
2023/06/09 04:43:33;;;;;;;18.95;16.85;;;19.20;99.90;;;;;;2094032;28;20039;-76
2023/06/09 04:44:36;;;;;;;18.30;16.38;;;19.20;99.90;;;;;;2089869;28;20143;-77
2023/06/09 04:45:37;;;;;;;19.17;16.90;;;19.20;99.90;;;;;;2086403;28;20579;-77
2023/06/09 04:46:46;;;;;;;22.05;16.75;;;19.20;99.90;;;;;;2092564;28;20103;-75
2023/06/09 04:47:48;;;;;;;26.30;16.80;;;19.20;99.90;;;;;;2088880;28;20531;-74
2023/06/09 04:48:51;;;;;;;20.25;17.38;;;19.20;99.90;;;;;;2091846;28;20024;-77
2023/06/09 04:49:53;;;;;;;19.42;17.25;;;19.20;99.90;;;;;;2093214;28;20032;-73
2023/06/09 04:50:54;;;;;;;20.83;17.25;;;19.20;99.90;;;;;;2101195;28;20482;-74
2023/06/09 04:51:55;;;;;;;22.25;17.23;;;19.10;99.90;;;;;;2097038;28;20134;-73
2023/06/09 04:53:07;;;;;;;21.20;16.73;;;19.00;99.90;;;;;;2084402;28;20115;-73
2023/06/09 04:54:10;;;;;;;18.45;16.20;;;18.90;99.90;;;;;;2086595;28;20035;-74
2023/06/09 04:55:12;;;;;;;22.45;16.60;;;19.00;99.90;;;;;;2098273;28;20016;-75
2023/06/09 04:56:16;;;;;;;21.38;16.27;;;19.00;99.90;;;;;;2098971;28;20114;-75
2023/06/09 04:57:19;;;;;;;19.38;16.90;;;19.00;99.90;;;;;;2098529;28;20032;-75
2023/06/09 04:58:20;;;;;;;20.42;18.10;;;19.00;99.90;;;;;;2089337;28;20025;-72
2023/06/09 04:59:21;;;;;;;19.35;16.80;;;19.00;99.90;;;;;;2097362;28;20071;-74
2023/06/09 05:00:23;;;;;;;20.67;16.30;;;19.00;99.90;;;;;;2104267;28;20560;-76
2023/06/09 05:01:24;;;;;;;18.85;16.95;;;19.10;99.90;;;;;;2083175;28;20033;-76
2023/06/09 05:02:25;;;;;;;20.23;16.25;;;19.10;99.90;;;;;;2085027;28;20424;-75
2023/06/09 05:03:27;;;;;;;21.63;16.08;;;19.20;99.90;;;;;;2100332;28;20019;-77
2023/06/09 05:04:28;;;;;;;17.98;16.15;;;19.40;99.90;;;;;;2100903;28;20515;-78
2023/06/09 05:05:30;;;;;;;18.27;16.23;;;19.50;99.90;;;;;;2104425;28;20028;-77
2023/06/09 05:06:33;;;;;;;19.92;16.75;;;19.50;99.90;;;;;;2097420;28;20027;-76
2023/06/09 05:07:35;;;;;;;21.27;16.40;;;19.60;99.90;;;;;;2088595;28;20152;-77
2023/06/09 05:08:36;;;;;;;19.25;15.35;;;19.70;99.90;;;;;;2094214;28;20031;-75
2023/06/09 05:09:38;;;;;;;18.75;16.33;;;19.90;99.90;;;;;;2085330;28;20493;-75
2023/06/09 05:10:39;;;;;;;17.52;15.63;;;20.00;99.90;;;;;;2090790;28;20025;-75
2023/06/09 05:11:39;;;;;;;20.85;15.55;;;20.20;99.90;;;;;;2089247;28;20207;-75
2023/06/09 05:12:41;;;;;;;18.65;15.82;;;20.40;99.90;;;;;;2085986;28;20457;-75
2023/06/09 05:13:42;;;;;;;17.17;15.20;;;20.50;99.90;;;;;;2086464;28;20424;-76
2023/06/09 05:14:43;;;;;;;17.00;14.93;;;20.70;99.90;;;;;;2090156;28;20611;-76
2023/06/09 05:15:43;;;;;;;17.05;15.35;;;20.90;99.90;;;;;;2104587;28;20096;-81
2023/06/09 05:16:46;;;;;;;16.70;14.98;;;21.10;99.90;;;;;;2098463;28;20108;-76
2023/06/09 05:17:46;;;;;;;16.92;15.20;;;21.30;99.90;;;;;;2097236;28;20032;-75
2023/06/09 05:18:48;;;;;;;19.48;14.82;;;21.50;99.90;;;;;;2095730;28;20126;-76